Weather observations for the past three days for
Oxnard, Oxnard Airport
Imperial (Metric)
Date Time (pdt) Wind (mph) Vis. (mi.) Weather Sky Cond. Temperature (ºF) Relative Humidity Wind Chill (°F) Heat Index (°F) Pressure Precipitation (in)
Air Dwpt 6 hour altimeter (in) sea level (mb) 1 hr 3 hr 6 hr
Max. Min.
08 21:51 SW 3 7.00 Fair CLR 57 55 93% 29.95 1014.1
08 20:51 SW 3 8.00 Fair CLR 57.9 54 87% 29.93 1013.4
08 19:51 W 5 7.00 A Few Clouds FEW008 57.9 54 87% 29.93 1013.2
08 18:51 Calm 8.00 A Few Clouds FEW011 60.1 54 80% 29.92 1013.0
08 17:51 W 7 9.00 Mostly Cloudy BKN013 62.1 55 78% 29.93 1013.2
08 16:51 W 12 9.00 Overcast SCT009 OVC014 61 55 66 61 81% 29.93 1013.5
08 15:51 W 13 9.00 Overcast SCT009 OVC015 62.1 55.9 80% 29.95 1014.2
08 14:51 W 12 8.00 Overcast FEW010 OVC016 64 57 78% 29.97 1014.8
08 13:51 W 9 8.00 Overcast OVC015 64 57 78% 29.99 1015.4
08 12:51 W 7 6.00 Overcast with Haze SCT010 OVC016 63 57 81% 30 1015.9
08 11:51 W 7 7.00 Overcast OVC014 63 55.9 78% 30.01 1016.2
08 10:51 W 6 7.00 Overcast OVC013 62.1 55.9 62.1 55.9 80% 30.02 1016.6
08 09:51 SE 3 7.00 Overcast OVC012 62.1 55.9 80% 30.02 1016.5
08 08:51 Calm 6.00 Overcast with Haze OVC011 60.1 55 84% 30.02 1016.5
08 07:51 SE 3 6.00 Overcast with Haze OVC012 59 54 83% 30.02 1016.5
08 06:51 Calm 6.00 Overcast with Haze OVC011 59 54 83% 30.01 1016.2
08 05:51 Calm 8.00 Overcast OVC011 59 55 87% 30 1015.7
08 04:51 W 5 6.00 Fog/Mist SCT008 55.9 53.1 59 55.9 90% 29.99 1015.5
08 03:51 S 3 7.00 Fair CLR 57.9 55 90% 29.98 1015.1
08 02:51 SE 6 7.00 Fair CLR 59 55.9 90% 29.98 1015.1
08 01:51 SE 5 7.00 Fair CLR 59 55.9 90% 29.98 1015.2
08 00:51 S 5 7.00 Fair CLR 57.9 55 90% 29.99 1015.4
07 23:51 SE 6 7.00 Fair CLR 57.9 54 87% 29.98 1015.2
07 22:51 SE 5 7.00 Fair CLR 59 54 63 57 83% 29.97 1014.9
07 21:51 Calm 7.00 Fair CLR 57.9 55 90% 29.97 1014.7
07 20:51 SW 3 6.00 Fog/Mist OVC007 57.9 55 90% 29.96 1014.5
07 19:51 W 6 5.00 Fog/Mist BKN006 57.9 55 90% 29.95 1014.0
07 18:51 W 12 6.00 Fog/Mist BKN006 59 55 87% 29.94 1013.9
07 17:51 W 13 7.00 Mostly Cloudy BKN006 61 55 81% 29.94 1013.8
07 16:51 W 14 8.00 Partly Cloudy SCT007 63 55.9 66.9 63 78% 29.95 1014.0
07 15:51 W 13 10.00 Fair CLR 64.9 55 70% 29.96 1014.3
07 14:51 W 12 10.00 Fair CLR 66 54 65% 29.97 1014.9
07 13:51 W 14 10.00 Fair CLR 66 55 68% 29.99 1015.6
07 12:51 W 10 10.00 Fair CLR 66 55 68% 30.01 1016.0
07 11:51 W 9 10.00 Fair CLR 66 55.9 70% 30.01 1016.2
07 10:51 W 8 9.00 Fair CLR 64.9 55 64.9 53.1 70% 30.01 1016.2
07 09:51 W 7 9.00 Fair CLR 63 55 76% 30.01 1016.2
07 08:51 NW 6 8.00 Fair CLR 62.1 54 75% 30.02 1016.5
07 07:51 Calm 9.00 Fair CLR 59 53.1 81% 30.02 1016.5
07 06:51 Calm 7.00 Fair CLR 54 51.1 90% 30.01 1016.2
07 05:51 Calm 9.00 Fair CLR 54 51.1 90% 30 1015.7
07 04:51 NE 5 10.00 Fair CLR 54 51.1 57.9 54 90% 30 1015.7
07 03:51 Calm 10.00 Fair CLR 55.9 52 87% 30 1015.8
07 02:51 N 3 10.00 Fair CLR 55.9 52 87% 30.01 1016.1
07 01:51 Calm 7.00 Fair CLR 57 54 90% 30.02 1016.6
07 00:51 Calm 9.00 Fair CLR 57.9 54 87% 30.03 1016.8
06 23:51 Calm 9.00 Fair CLR 57.9 54 87% 30.03 1016.8
06 22:51 W 3 8.00 Fair CLR 57 54 64 57 90% 30.04 1017.0
06 21:51 Calm 9.00 Fair CLR 59 55 87% 30.04 1017.0
06 20:51 W 3 9.00 Fair CLR 59 55 87% 30.02 1016.5
06 19:51 W 9 8.00 Fair CLR 59 55 87% 30 1015.8
06 18:51 W 14 9.00 Fair CLR 61 55 81% 30 1015.8
06 17:51 W 12 10.00 Fair CLR 62.1 55 78% 30 1015.9
06 16:51 W 13 10.00 Fair CLR 64 54 66 64 70% 30 1015.9
06 15:51 W 14 10.00 Fair CLR 64.9 52 63% 30.02 1016.4
06 14:51 W 13 10.00 Fair CLR 64.9 55 70% 30.05 1017.3
06 13:51 SW 9 10.00 Fair CLR 64.9 54 68% 30.06 1017.7
06 12:51 SW 10 10.00 Fair CLR 64.9 54 68% 30.07 1018.1
06 11:51 SW 9 10.00 Fair CLR 64.9 53.1 66% 30.08 1018.3
06 10:51 SW 10 10.00 Fair CLR 64.9 52 66 53.1 63% 30.08 1018.6
06 09:51 S 6 10.00 A Few Clouds FEW021 64 53.1 68% 30.08 1018.3
06 08:51 SW 5 10.00 Fair CLR 62.1 52 70% 30.07 1018.3
06 07:51 NE 7 10.00 Fair CLR 57.9 48 70% 30.07 1018.2
06 06:51 NE 5 10.00 Fair CLR 54 48 80% 30.06 1017.9
06 05:51 NE 6 10.00 Fair CLR 53.1 48 83% 30.05 1017.6
06 04:51 NE 7 10.00 Fair CLR 53.1 48 57.9 53.1 83% 30.04 1017.2
06 03:51 NE 6 10.00 Fair CLR 53.1 48.9 86% 30.03 1017.0
06 02:51 NE 7 10.00 Fair CLR 54 50 87% 30.03 1016.8
06 01:51 NE 7 10.00 Fair CLR 55 50 83% 30.04 1017.2
06 00:51 NE 7 10.00 Fair CLR 55 51.1 87% 30.04 1017.2
05 23:51 E 6 10.00 A Few Clouds FEW011 55.9 51.1 84% 30.03 1016.8
05 22:51 Calm 10.00 Fair CLR 57 53.1 63 57 87% 30.02 1016.3
Date Time (pdt) Wind (mph) Vis. (mi.) Weather Sky Cond. Air Dwpt Max. Min. Relative Humidity Wind Chill (°F) Heat Index (°F) altimeter (in) sea level (mb) 1 hr 3 hr 6 hr
6 hour
Temperature (ºF) Pressure Precipitation (in)